Time;durP1;ratioP1;P1;durP2;ratioP2;P2;SDS_P1;SDS_P2;PMS_P1;PMS_P2;Temp;Humidity;BMP_temperature;BMP_pressure;BME280_temperature;BME280_humidity;BME280_pressure;Samples;Min_cycle;Max_cycle;Signal;HPM_P1;HPM_P2
2024/03/31 00:02:22;;;;;;;8.38;3.50;;;;;;;;;;5031808;28;20083;-66
2024/03/31 00:04:50;;;;;;;5.03;3.55;;;;;;;;;;5031937;28;20352;-67
2024/03/31 00:07:16;;;;;;;6.28;3.40;;;;;;;;;;5031591;28;20091;-65
2024/03/31 00:09:41;;;;;;;4.95;3.45;;;;;;;;;;5032286;28;20454;-65
2024/03/31 00:12:06;;;;;;;8.15;3.50;;;;;;;;;;5031435;28;20018;-65
2024/03/31 00:14:32;;;;;;;7.43;3.88;;;;;;;;;;5031938;28;20052;-66
2024/03/31 00:17:01;;;;;;;6.05;3.72;;;;;;;;;;5032034;28;20022;-65
2024/03/31 00:19:26;;;;;;;7.25;3.50;;;;;;;;;;5031549;28;20018;-66
2024/03/31 00:21:51;;;;;;;5.20;3.33;;;;;;;;;;5031617;28;20075;-66
2024/03/31 00:24:17;;;;;;;5.88;3.40;;;;;;;;;;5035503;28;20021;-66
2024/03/31 00:26:42;;;;;;;6.65;3.70;;;;;;;;;;5035185;28;20088;-67
2024/03/31 00:29:07;;;;;;;8.73;5.50;;;;;;;;;;5034561;28;20058;-66
2024/03/31 00:31:33;;;;;;;7.10;3.97;;;;;;;;;;5035756;28;20060;-67
2024/03/31 00:33:58;;;;;;;5.93;3.72;;;;;;;;;;5034641;28;20382;-66
2024/03/31 00:36:23;;;;;;;11.73;5.95;;;;;;;;;;5035312;28;20056;-67
2024/03/31 00:38:49;;;;;;;7.68;4.30;;;;;;;;;;5034472;28;20080;-65
2024/03/31 00:41:14;;;;;;;9.63;4.55;;;;;;;;;;5033818;28;20041;-64
2024/03/31 00:43:39;;;;;;;6.07;3.70;;;;;;;;;;5035414;28;20025;-65
2024/03/31 00:46:06;;;;;;;8.60;4.22;;;;;;;;;;5034891;28;20022;-66
2024/03/31 00:48:32;;;;;;;8.23;4.32;;;;;;;;;;5035181;28;20419;-67
2024/03/31 00:50:57;;;;;;;10.43;4.78;;;;;;;;;;5035034;28;20029;-65
2024/03/31 00:53:22;;;;;;;6.53;3.90;;;;;;;;;;5034098;28;20419;-66
2024/03/31 00:55:48;;;;;;;8.07;3.97;;;;;;;;;;5034936;28;20033;-64
2024/03/31 00:58:13;;;;;;;7.00;3.95;;;;;;;;;;5033709;28;20028;-67
2024/03/31 01:00:39;;;;;;;13.38;5.35;;;;;;;;;;5034214;28;20057;-66
2024/03/31 01:03:04;;;;;;;10.07;4.93;;;;;;;;;;5034728;28;20025;-66
2024/03/31 01:05:30;;;;;;;12.20;6.03;;;;;;;;;;5035137;28;20041;-67
2024/03/31 01:07:55;;;;;;;9.27;5.05;;;;;;;;;;5035021;28;20036;-66
2024/03/31 01:10:21;;;;;;;9.35;6.40;;;;;;;;;;5034639;28;20104;-65
2024/03/31 01:12:46;;;;;;;13.15;5.80;;;;;;;;;;5034201;28;20172;-64
2024/03/31 01:15:12;;;;;;;14.27;6.55;;;;;;;;;;5034907;28;20496;-64
2024/03/31 01:17:37;;;;;;;12.27;6.50;;;;;;;;;;5034858;28;20021;-65
2024/03/31 01:20:03;;;;;;;11.63;6.35;;;;;;;;;;5034550;28;20040;-68
2024/03/31 01:22:30;;;;;;;11.02;7.00;;;;;;;;;;5034224;28;20033;-67
2024/03/31 01:24:55;;;;;;;10.18;6.80;;;;;;;;;;5033945;28;20021;-64
2024/03/31 01:27:21;;;;;;;12.55;6.68;;;;;;;;;;5034522;28;20048;-67
2024/03/31 01:29:46;;;;;;;13.40;7.20;;;;;;;;;;5034427;28;20033;-67
2024/03/31 01:32:11;;;;;;;12.25;7.38;;;;;;;;;;5034418;28;20022;-67
2024/03/31 01:34:37;;;;;;;10.30;7.28;;;;;;;;;;5033064;28;20389;-65
2024/03/31 01:37:02;;;;;;;12.65;7.05;;;;;;;;;;5034464;28;20030;-66
2024/03/31 01:39:28;;;;;;;12.93;6.63;;;;;;;;;;5034052;28;20017;-67
2024/03/31 01:41:54;;;;;;;11.90;7.28;;;;;;;;;;5033849;28;20026;-67
2024/03/31 01:44:20;;;;;;;12.65;7.65;;;;;;;;;;5034038;28;20044;-66
2024/03/31 01:46:45;;;;;;;11.80;6.78;;;;;;;;;;5034123;28;20029;-63
2024/03/31 01:49:11;;;;;;;12.32;7.85;;;;;;;;;;5034156;28;20021;-64
2024/03/31 01:51:36;;;;;;;13.52;7.07;;;;;;;;;;5033903;28;20130;-63
2024/03/31 01:54:01;;;;;;;14.63;7.47;;;;;;;;;;5033489;28;20061;-65
2024/03/31 01:56:27;;;;;;;16.30;7.40;;;;;;;;;;5033696;28;20460;-66
2024/03/31 01:58:53;;;;;;;11.38;7.15;;;;;;;;;;5032421;28;20026;-63
2024/03/31 02:01:19;;;;;;;16.17;8.05;;;;;;;;;;5033574;28;20149;-63
2024/03/31 02:03:44;;;;;;;11.27;7.32;;;;;;;;;;5033937;28;20104;-64
2024/03/31 02:06:10;;;;;;;12.73;7.43;;;;;;;;;;5033722;28;20444;-65
2024/03/31 02:08:35;;;;;;;15.35;8.05;;;;;;;;;;5033505;28;20059;-65
2024/03/31 02:11:01;;;;;;;16.83;7.53;;;;;;;;;;5033594;28;20029;-64
2024/03/31 02:13:27;;;;;;;13.48;7.40;;;;;;;;;;5033244;28;20017;-64
2024/03/31 02:15:53;;;;;;;20.23;8.15;;;;;;;;;;5033300;28;20033;-65
2024/03/31 02:18:19;;;;;;;9.18;7.53;;;;;;;;;;5033556;28;20083;-65
2024/03/31 02:20:44;;;;;;;11.88;7.43;;;;;;;;;;5033837;28;20033;-65
2024/03/31 02:23:10;;;;;;;20.08;8.45;;;;;;;;;;5032821;28;20045;-65
2024/03/31 02:25:36;;;;;;;10.93;7.75;;;;;;;;;;5033460;28;20443;-64
2024/03/31 02:28:02;;;;;;;14.88;9.07;;;;;;;;;;5033371;28;20113;-67
2024/03/31 02:30:27;;;;;;;14.55;8.48;;;;;;;;;;5033144;28;20033;-66
2024/03/31 02:32:53;;;;;;;10.32;7.53;;;;;;;;;;5032633;28;20437;-66
2024/03/31 02:35:18;;;;;;;12.70;7.72;;;;;;;;;;5033530;28;20021;-64
2024/03/31 02:37:46;;;;;;;12.18;8.23;;;;;;;;;;5033192;28;20025;-66
2024/03/31 02:40:11;;;;;;;13.07;8.25;;;;;;;;;;5032728;28;20022;-66
2024/03/31 02:42:37;;;;;;;12.60;7.93;;;;;;;;;;5033278;28;20794;-66
2024/03/31 02:45:02;;;;;;;13.50;8.63;;;;;;;;;;5031845;28;20100;-65
2024/03/31 02:47:30;;;;;;;14.80;7.97;;;;;;;;;;5032336;28;20037;-68
2024/03/31 02:49:55;;;;;;;11.88;7.82;;;;;;;;;;5031857;28;20026;-66
2024/03/31 02:52:20;;;;;;;11.00;7.93;;;;;;;;;;5032759;28;20018;-65
2024/03/31 02:54:46;;;;;;;11.93;7.43;;;;;;;;;;5033077;28;20056;-65
2024/03/31 02:57:11;;;;;;;10.38;7.25;;;;;;;;;;5032662;28;20037;-66
2024/03/31 02:59:37;;;;;;;15.45;8.30;;;;;;;;;;5032335;28;20494;-67
2024/03/31 03:02:02;;;;;;;9.50;7.53;;;;;;;;;;5032991;28;20085;-69
2024/03/31 03:04:27;;;;;;;11.48;7.47;;;;;;;;;;5032850;28;20037;-68
2024/03/31 03:06:53;;;;;;;13.35;8.55;;;;;;;;;;5032222;28;20034;-68
2024/03/31 03:09:19;;;;;;;14.70;8.27;;;;;;;;;;5032596;28;20440;-68
2024/03/31 03:11:44;;;;;;;12.77;8.63;;;;;;;;;;5032670;28;20017;-67
2024/03/31 03:14:10;;;;;;;13.20;9.45;;;;;;;;;;5032677;28;20021;-68
2024/03/31 03:16:35;;;;;;;12.98;8.40;;;;;;;;;;5032202;28;20021;-68
2024/03/31 03:19:01;;;;;;;13.57;9.55;;;;;;;;;;5032291;28;20029;-66
2024/03/31 03:21:26;;;;;;;14.00;10.02;;;;;;;;;;5032701;28;20344;-67
2024/03/31 03:23:51;;;;;;;12.25;8.30;;;;;;;;;;5032518;28;20330;-65
2024/03/31 03:26:17;;;;;;;14.43;8.02;;;;;;;;;;5032469;28;20021;-66
2024/03/31 03:28:42;;;;;;;12.25;8.45;;;;;;;;;;5031575;28;20137;-65
2024/03/31 03:31:07;;;;;;;12.80;9.40;;;;;;;;;;5032419;28;20036;-66
2024/03/31 03:33:33;;;;;;;10.60;8.55;;;;;;;;;;5032315;28;20037;-68
2024/03/31 03:36:02;;;;;;;10.75;7.72;;;;;;;;;;5032090;28;20079;-67
2024/03/31 03:38:28;;;;;;;14.90;7.93;;;;;;;;;;5031626;28;20025;-66
2024/03/31 03:40:53;;;;;;;12.02;9.27;;;;;;;;;;5032294;28;20022;-67
2024/03/31 03:43:19;;;;;;;13.00;8.60;;;;;;;;;;5032636;28;20018;-66
2024/03/31 03:45:45;;;;;;;14.55;6.95;;;;;;;;;;5031942;28;20021;-66
2024/03/31 03:48:10;;;;;;;12.43;7.40;;;;;;;;;;5031808;28;20037;-67
2024/03/31 03:50:36;;;;;;;11.90;7.97;;;;;;;;;;5032055;28;20025;-65
2024/03/31 03:53:03;;;;;;;13.25;6.90;;;;;;;;;;5030624;28;20025;-67
2024/03/31 03:55:28;;;;;;;15.38;7.75;;;;;;;;;;5032168;28;20124;-66
2024/03/31 03:57:54;;;;;;;15.18;8.20;;;;;;;;;;5032866;28;20112;-65
2024/03/31 04:00:19;;;;;;;14.52;8.07;;;;;;;;;;5036481;28;20132;-67
2024/03/31 04:02:45;;;;;;;13.52;8.93;;;;;;;;;;5035532;28;20030;-65
2024/03/31 04:05:10;;;;;;;13.38;10.60;;;;;;;;;;5034898;28;20450;-65
2024/03/31 04:07:35;;;;;;;13.48;11.75;;;;;;;;;;5036151;28;20389;-64
2024/03/31 04:10:01;;;;;;;14.70;12.13;;;;;;;;;;5034665;28;20086;-68
2024/03/31 04:12:29;;;;;;;15.73;14.15;;;;;;;;;;5035744;28;20325;-67
2024/03/31 04:14:54;;;;;;;14.98;12.07;;;;;;;;;;5035936;28;20039;-66
2024/03/31 04:17:19;;;;;;;15.63;11.57;;;;;;;;;;5035527;28;20029;-65
2024/03/31 04:19:45;;;;;;;12.73;11.43;;;;;;;;;;5035608;28;20025;-66
2024/03/31 04:22:10;;;;;;;17.05;12.35;;;;;;;;;;5035999;28;20428;-66
2024/03/31 04:24:35;;;;;;;13.93;12.45;;;;;;;;;;5035433;28;20014;-67
2024/03/31 04:27:01;;;;;;;15.50;12.82;;;;;;;;;;5034987;28;20044;-67
2024/03/31 04:29:26;;;;;;;13.32;12.02;;;;;;;;;;5035555;28;20076;-66
2024/03/31 04:31:53;;;;;;;15.75;14.07;;;;;;;;;;5036006;28;20037;-66
2024/03/31 04:34:19;;;;;;;26.33;24.27;;;;;;;;;;5034697;28;20022;-64
2024/03/31 04:36:45;;;;;;;1999.90;999.90;;;;;;;;;;5035369;28;20124;-64
2024/03/31 04:39:10;;;;;;;1999.90;999.90;;;;;;;;;;5035573;28;20108;-65
2024/03/31 04:41:36;;;;;;;1999.90;999.90;;;;;;;;;;5035200;28;20068;-65
2024/03/31 04:44:01;;;;;;;35.28;32.80;;;;;;;;;;5034959;28;20449;-66
2024/03/31 04:46:27;;;;;;;24.55;22.55;;;;;;;;;;5035143;28;20057;-67
2024/03/31 04:48:52;;;;;;;1999.90;999.90;;;;;;;;;;5035636;28;20033;-65
2024/03/31 04:51:18;;;;;;;1999.90;999.90;;;;;;;;;;5034712;28;20533;-65
2024/03/31 04:53:44;;;;;;;1999.90;999.90;;;;;;;;;;5034863;28;20462;-63
2024/03/31 04:56:09;;;;;;;112.03;105.63;;;;;;;;;;5035281;28;20029;-65
2024/03/31 04:58:36;;;;;;;58.83;54.72;;;;;;;;;;5035172;28;20068;-64
2024/03/31 05:01:01;;;;;;;34.45;32.00;;;;;;;;;;5035009;28;20013;-60
2024/03/31 05:03:26;;;;;;;28.88;26.50;;;;;;;;;;5034585;28;20087;-66
2024/03/31 05:05:52;;;;;;;17.08;15.85;;;;;;;;;;5034726;28;20020;-66
2024/03/31 05:08:18;;;;;;;11.15;10.10;;;;;;;;;;5034831;28;20042;-75
2024/03/31 05:10:59;;;;;;;20.92;19.13;;;;;;;;;;5033487;28;20028;-64
2024/03/31 05:13:27;;;;;;;10.05;8.55;;;;;;;;;;5034757;28;20424;-67
2024/03/31 05:16:06;;;;;;;8.10;7.30;;;;;;;;;;5034497;28;20075;-67
2024/03/31 05:18:32;;;;;;;7.85;6.90;;;;;;;;;;5035147;28;20056;-67
2024/03/31 05:21:00;;;;;;;16.52;6.85;;;;;;;;;;5034007;28;20040;-65
2024/03/31 05:23:26;;;;;;;10.07;7.13;;;;;;;;;;5033691;28;20029;-66
2024/03/31 05:25:51;;;;;;;8.85;6.45;;;;;;;;;;5034373;28;20040;-68
2024/03/31 05:28:17;;;;;;;9.98;6.65;;;;;;;;;;5034662;28;20033;-69
2024/03/31 05:30:43;;;;;;;8.52;6.47;;;;;;;;;;5034473;28;20071;-68
2024/03/31 05:33:08;;;;;;;11.82;6.43;;;;;;;;;;5033798;28;20038;-67
2024/03/31 05:35:33;;;;;;;9.37;6.40;;;;;;;;;;5034150;28;20022;-68
2024/03/31 05:37:59;;;;;;;10.52;5.90;;;;;;;;;;5033384;28;20304;-67
2024/03/31 05:40:24;;;;;;;8.52;6.60;;;;;;;;;;5033929;28;20013;-68
2024/03/31 05:42:50;;;;;;;7.63;6.00;;;;;;;;;;5033840;28;20022;-69
2024/03/31 05:45:15;;;;;;;9.18;5.72;;;;;;;;;;5033672;28;20936;-68
2024/03/31 05:47:40;;;;;;;8.70;6.30;;;;;;;;;;5032672;28;20114;-67
2024/03/31 05:50:06;;;;;;;8.33;6.00;;;;;;;;;;5033683;28;20250;-67
2024/03/31 05:52:31;;;;;;;10.73;5.95;;;;;;;;;;5033703;28;20540;-65
2024/03/31 05:54:57;;;;;;;7.70;5.68;;;;;;;;;;5033445;28;20053;-67
2024/03/31 05:57:22;;;;;;;10.05;6.30;;;;;;;;;;5033259;28;20021;-71
2024/03/31 05:59:47;;;;;;;8.20;6.00;;;;;;;;;;5032816;28;20029;-69
2024/03/31 06:02:13;;;;;;;8.10;5.77;;;;;;;;;;5033685;28;20344;-65
2024/03/31 06:04:38;;;;;;;9.73;5.32;;;;;;;;;;5033276;28;20243;-65
2024/03/31 06:07:04;;;;;;;10.90;5.60;;;;;;;;;;5032999;28;20037;-67
2024/03/31 06:09:29;;;;;;;11.57;5.78;;;;;;;;;;5033821;28;20255;-63
2024/03/31 06:11:55;;;;;;;6.50;5.80;;;;;;;;;;5033673;28;20025;-67
2024/03/31 06:14:20;;;;;;;8.53;5.50;;;;;;;;;;5033243;28;20040;-67
2024/03/31 06:16:45;;;;;;;8.43;5.80;;;;;;;;;;5033489;28;20021;-69
2024/03/31 06:19:11;;;;;;;7.47;5.45;;;;;;;;;;5033297;28;20325;-66
2024/03/31 06:21:37;;;;;;;8.17;5.80;;;;;;;;;;5032373;28;20148;-67
2024/03/31 06:24:02;;;;;;;10.90;5.60;;;;;;;;;;5033131;28;20784;-66
2024/03/31 06:26:27;;;;;;;9.50;5.40;;;;;;;;;;5033831;28;20025;-67
2024/03/31 06:28:53;;;;;;;7.67;5.37;;;;;;;;;;5032664;28;20405;-68
2024/03/31 06:31:18;;;;;;;9.17;5.57;;;;;;;;;;5032484;28;20254;-67
2024/03/31 06:33:44;;;;;;;6.78;4.93;;;;;;;;;;5032745;28;20251;-68
2024/03/31 06:36:09;;;;;;;5.68;4.65;;;;;;;;;;5033088;28;20022;-69
2024/03/31 06:38:35;;;;;;;8.43;5.55;;;;;;;;;;5032951;28;20068;-67
2024/03/31 06:41:00;;;;;;;7.80;5.53;;;;;;;;;;5033014;28;20017;-67
2024/03/31 06:43:25;;;;;;;10.40;5.33;;;;;;;;;;5033043;28;20243;-66
2024/03/31 06:45:51;;;;;;;8.37;5.20;;;;;;;;;;5032625;28;20320;-69
2024/03/31 06:48:16;;;;;;;9.45;5.30;;;;;;;;;;5032641;28;20310;-67
2024/03/31 06:50:42;;;;;;;7.93;5.38;;;;;;;;;;5032574;28;20127;-66
2024/03/31 06:53:07;;;;;;;9.83;5.33;;;;;;;;;;5033029;28;20079;-67
2024/03/31 06:55:32;;;;;;;9.20;5.00;;;;;;;;;;5032284;28;20389;-62
2024/03/31 06:57:58;;;;;;;9.82;4.60;;;;;;;;;;5032584;28;20045;-67
2024/03/31 07:00:24;;;;;;;8.05;5.18;;;;;;;;;;5032296;28;20053;-67
2024/03/31 07:02:50;;;;;;;7.63;4.73;;;;;;;;;;5032915;28;20029;-67
2024/03/31 07:05:15;;;;;;;6.45;4.97;;;;;;;;;;5032478;28;20625;-68
2024/03/31 07:07:41;;;;;;;7.30;4.85;;;;;;;;;;5032371;28;20021;-66
2024/03/31 07:10:06;;;;;;;8.52;5.28;;;;;;;;;;5031770;28;20029;-66
2024/03/31 07:12:32;;;;;;;9.70;5.50;;;;;;;;;;5033238;28;20129;-68
2024/03/31 07:14:57;;;;;;;10.30;4.97;;;;;;;;;;5032767;28;20021;-68
2024/03/31 07:17:22;;;;;;;12.43;4.80;;;;;;;;;;5031984;28;21276;-70
2024/03/31 07:19:48;;;;;;;10.10;5.10;;;;;;;;;;5031751;28;20033;-69
2024/03/31 07:22:13;;;;;;;9.93;4.67;;;;;;;;;;5031338;28;20022;-68
2024/03/31 07:24:38;;;;;;;5.87;3.60;;;;;;;;;;5032659;28;20716;-67
2024/03/31 07:27:04;;;;;;;7.30;4.07;;;;;;;;;;5031922;28;20076;-64
2024/03/31 07:29:30;;;;;;;5.95;3.92;;;;;;;;;;5032360;28;20086;-67
2024/03/31 07:31:55;;;;;;;6.88;4.15;;;;;;;;;;5031614;28;20079;-69
2024/03/31 07:34:20;;;;;;;11.53;3.60;;;;;;;;;;5031858;28;20022;-67
2024/03/31 07:36:46;;;;;;;5.63;3.95;;;;;;;;;;5031849;28;20022;-67
2024/03/31 07:39:11;;;;;;;10.02;4.22;;;;;;;;;;5031541;28;20348;-69
2024/03/31 07:41:37;;;;;;;7.32;3.75;;;;;;;;;;5029929;28;20025;-66
2024/03/31 07:44:02;;;;;;;7.63;4.20;;;;;;;;;;5031540;28;20028;-68
2024/03/31 07:46:28;;;;;;;7.30;4.60;;;;;;;;;;5031789;28;20277;-67
2024/03/31 07:48:55;;;;;;;9.88;4.03;;;;;;;;;;5031799;28;20113;-69
2024/03/31 07:51:20;;;;;;;8.32;4.10;;;;;;;;;;5032010;28;20044;-68
2024/03/31 07:53:46;;;;;;;9.90;3.70;;;;;;;;;;5031575;28;20117;-65
2024/03/31 07:56:11;;;;;;;5.28;2.90;;;;;;;;;;5031598;28;20104;-68
2024/03/31 07:58:36;;;;;;;4.17;3.20;;;;;;;;;;5031286;28;20507;-65
2024/03/31 08:01:02;;;;;;;7.50;3.10;;;;;;;;;;5032034;28;20112;-63
2024/03/31 08:03:30;;;;;;;5.70;3.20;;;;;;;;;;5030333;28;20033;-70
2024/03/31 08:05:55;;;;;;;9.40;3.17;;;;;;;;;;5031796;28;20041;-67
2024/03/31 08:08:21;;;;;;;7.70;2.67;;;;;;;;;;5031503;28;20032;-66
2024/03/31 08:10:46;;;;;;;5.30;3.13;;;;;;;;;;5031225;28;20033;-67
2024/03/31 08:13:12;;;;;;;8.17;3.60;;;;;;;;;;5032092;28;20077;-65
2024/03/31 08:15:37;;;;;;;9.20;3.63;;;;;;;;;;5031446;28;20250;-64
2024/03/31 08:18:03;;;;;;;6.68;3.05;;;;;;;;;;5031716;28;20033;-67
2024/03/31 08:20:30;;;;;;;5.82;3.20;;;;;;;;;;5031589;28;20022;-65
2024/03/31 08:22:55;;;;;;;12.60;3.88;;;;;;;;;;5031712;28;20156;-68
2024/03/31 08:25:21;;;;;;;7.18;3.60;;;;;;;;;;5031197;28;20116;-69
2024/03/31 08:27:46;;;;;;;7.22;3.28;;;;;;;;;;5030539;28;20425;-67
2024/03/31 08:30:12;;;;;;;8.82;3.25;;;;;;;;;;5031435;28;20138;-67
2024/03/31 08:32:37;;;;;;;4.05;2.60;;;;;;;;;;5031826;28;20025;-60
2024/03/31 08:35:03;;;;;;;3.80;2.28;;;;;;;;;;5030890;28;20033;-65
2024/03/31 08:37:29;;;;;;;4.82;2.55;;;;;;;;;;5031562;28;20061;-67
2024/03/31 08:39:55;;;;;;;3.47;2.70;;;;;;;;;;5031599;28;20446;-66
2024/03/31 08:42:26;;;;;;;6.63;2.92;;;;;;;;;;5030164;28;20089;-68
2024/03/31 08:44:53;;;;;;;8.48;3.22;;;;;;;;;;5033600;28;20037;-69
2024/03/31 08:47:27;;;;;;;5.70;3.45;;;;;;;;;;5035276;28;20041;-72
2024/03/31 08:49:54;;;;;;;6.15;3.92;;;;;;;;;;5034767;28;20029;-72
2024/03/31 08:52:19;;;;;;;5.82;4.38;;;;;;;;;;5034165;28;20334;-72
2024/03/31 08:54:46;;;;;;;6.95;4.07;;;;;;;;;;5033556;28;20104;-72
2024/03/31 08:57:11;;;;;;;6.85;4.45;;;;;;;;;;5034542;28;20034;-72
2024/03/31 08:59:36;;;;;;;6.47;3.88;;;;;;;;;;5035286;28;20044;-71
2024/03/31 09:02:02;;;;;;;9.68;4.43;;;;;;;;;;5034426;28;20033;-70
2024/03/31 09:04:28;;;;;;;6.43;4.20;;;;;;;;;;5034108;28;20120;-72
2024/03/31 09:06:53;;;;;;;6.57;4.35;;;;;;;;;;5034869;28;20025;-72
2024/03/31 09:09:24;;;;;;;8.23;4.95;;;;;;;;;;5034920;28;20113;-72
2024/03/31 09:11:50;;;;;;;8.73;4.60;;;;;;;;;;5034489;28;20034;-73
2024/03/31 09:14:16;;;;;;;13.38;5.45;;;;;;;;;;5034026;28;20028;-72
2024/03/31 09:16:48;;;;;;;9.57;5.47;;;;;;;;;;5034779;28;20057;-72
2024/03/31 09:19:14;;;;;;;11.35;5.45;;;;;;;;;;5034629;28;20029;-72
2024/03/31 09:21:45;;;;;;;13.15;6.00;;;;;;;;;;5034777;28;20048;-72
2024/03/31 09:24:11;;;;;;;8.57;5.15;;;;;;;;;;5033591;28;20021;-68
2024/03/31 09:26:37;;;;;;;12.10;5.72;;;;;;;;;;5034900;28;20041;-73
2024/03/31 09:29:02;;;;;;;10.10;6.00;;;;;;;;;;5034516;28;20360;-72
2024/03/31 09:31:28;;;;;;;10.18;5.47;;;;;;;;;;5034049;28;20026;-73
2024/03/31 09:33:53;;;;;;;13.02;6.07;;;;;;;;;;5034069;28;20075;-74
2024/03/31 09:36:19;;;;;;;12.70;5.82;;;;;;;;;;5033860;28;20462;-74
2024/03/31 09:38:44;;;;;;;12.77;5.15;;;;;;;;;;5028416;28;20375;-72
2024/03/31 09:41:09;;;;;;;7.32;4.63;;;;;;;;;;5014376;28;20088;-73
2024/03/31 09:43:35;;;;;;;8.68;5.10;;;;;;;;;;5013864;28;20034;-73
2024/03/31 09:46:00;;;;;;;14.25;6.05;;;;;;;;;;5014286;28;20014;-72
2024/03/31 09:48:26;;;;;;;10.70;5.30;;;;;;;;;;5023330;28;20041;-72
2024/03/31 09:50:51;;;;;;;9.82;4.70;;;;;;;;;;5033500;28;20435;-73
2024/03/31 09:53:18;;;;;;;12.93;6.15;;;;;;;;;;5033939;28;20034;-72
2024/03/31 09:55:46;;;;;;;8.75;4.53;;;;;;;;;;5031315;28;20041;-74
2024/03/31 09:58:12;;;;;;;16.42;4.47;;;;;;;;;;5033856;28;20034;-72
2024/03/31 10:00:41;;;;;;;8.15;3.90;;;;;;;;;;5034488;28;20033;-72
2024/03/31 10:03:25;;;;;;;9.25;3.55;;;;;;;;;;5033308;28;20406;-73
2024/03/31 10:05:52;;;;;;;5.75;3.22;;;;;;;;;;5033341;28;20161;-71
2024/03/31 10:08:18;;;;;;;7.63;3.30;;;;;;;;;;5034287;28;20391;-73
2024/03/31 10:10:45;;;;;;;7.20;3.22;;;;;;;;;;5033077;28;20029;-67
2024/03/31 10:13:11;;;;;;;13.93;3.97;;;;;;;;;;5032957;28;20440;-71
2024/03/31 10:15:36;;;;;;;12.68;3.60;;;;;;;;;;5033628;28;20022;-74
2024/03/31 10:18:05;;;;;;;9.05;3.63;;;;;;;;;;5033573;28;20040;-74
2024/03/31 10:20:30;;;;;;;6.47;3.13;;;;;;;;;;5033442;28;20298;-72
2024/03/31 10:22:57;;;;;;;9.65;3.58;;;;;;;;;;5032835;28;20032;-73
2024/03/31 10:25:24;;;;;;;11.35;3.95;;;;;;;;;;5034498;28;20363;-71
2024/03/31 10:27:53;;;;;;;6.78;3.70;;;;;;;;;;5033133;28;20033;-74
2024/03/31 10:30:19;;;;;;;8.48;3.63;;;;;;;;;;5032723;28;20482;-72
2024/03/31 10:32:45;;;;;;;8.38;4.13;;;;;;;;;;5033522;28;20017;-67
2024/03/31 10:35:11;;;;;;;7.57;3.80;;;;;;;;;;5033525;28;20025;-73
2024/03/31 10:37:37;;;;;;;7.63;4.28;;;;;;;;;;5032217;28;20029;-72
2024/03/31 10:40:04;;;;;;;11.82;3.90;;;;;;;;;;5032532;28;20021;-71
2024/03/31 10:42:30;;;;;;;8.68;3.53;;;;;;;;;;5032821;28;20404;-72
2024/03/31 10:44:56;;;;;;;6.20;3.15;;;;;;;;;;5033261;28;20026;-73
2024/03/31 10:47:21;;;;;;;8.90;2.78;;;;;;;;;;5031978;28;20116;-71
2024/03/31 10:49:55;;;;;;;6.15;2.85;;;;;;;;;;5032565;28;20026;-71
2024/03/31 10:52:22;;;;;;;10.18;2.50;;;;;;;;;;5032791;28;20021;-71
2024/03/31 10:54:51;;;;;;;10.00;2.60;;;;;;;;;;5033089;28;20064;-74
2024/03/31 10:57:16;;;;;;;10.32;2.28;;;;;;;;;;5032316;28;20033;-64
2024/03/31 10:59:43;;;;;;;7.75;2.78;;;;;;;;;;5032497;28;20038;-73
2024/03/31 11:02:20;;;;;;;6.82;2.67;;;;;;;;;;5032259;28;20125;-73
2024/03/31 11:04:58;;;;;;;7.63;2.70;;;;;;;;;;5032239;28;20433;-69
2024/03/31 11:07:25;;;;;;;5.97;3.20;;;;;;;;;;5032272;28;20036;-70
2024/03/31 11:09:51;;;;;;;13.38;2.92;;;;;;;;;;5031904;28;20022;-72
2024/03/31 11:12:16;;;;;;;8.55;3.30;;;;;;;;;;5032460;28;20068;-66
2024/03/31 11:14:42;;;;;;;7.60;2.85;;;;;;;;;;5032781;28;20029;-73
2024/03/31 11:17:09;;;;;;;7.57;2.92;;;;;;;;;;5031381;28;20083;-72
2024/03/31 11:19:37;;;;;;;6.65;3.00;;;;;;;;;;5031937;28;20029;-73
2024/03/31 11:22:02;;;;;;;8.52;2.70;;;;;;;;;;5032555;28;20107;-73
2024/03/31 11:24:31;;;;;;;8.32;3.40;;;;;;;;;;5032354;28;20067;-72
2024/03/31 11:26:57;;;;;;;8.30;3.00;;;;;;;;;;5031685;28;20056;-71
2024/03/31 11:29:23;;;;;;;9.13;3.20;;;;;;;;;;5031973;28;20360;-73
2024/03/31 11:31:48;;;;;;;7.75;3.55;;;;;;;;;;5031866;28;20021;-62
2024/03/31 11:34:14;;;;;;;8.95;2.70;;;;;;;;;;5032225;28;20017;-73
2024/03/31 11:36:41;;;;;;;4.53;2.58;;;;;;;;;;5031732;28;20047;-72
2024/03/31 11:39:07;;;;;;;4.35;2.85;;;;;;;;;;5031574;28;20048;-70
2024/03/31 11:41:32;;;;;;;5.85;3.05;;;;;;;;;;5032314;28;20025;-73
2024/03/31 11:43:58;;;;;;;5.68;2.80;;;;;;;;;;5031595;28;20026;-73
2024/03/31 11:46:24;;;;;;;7.75;2.85;;;;;;;;;;5031981;28;20018;-73
2024/03/31 11:48:49;;;;;;;5.10;2.85;;;;;;;;;;5032361;28;20108;-66
2024/03/31 11:51:14;;;;;;;5.68;2.67;;;;;;;;;;5032168;28;20037;-69
2024/03/31 11:53:40;;;;;;;8.25;2.95;;;;;;;;;;5031758;28;20053;-72
2024/03/31 11:56:06;;;;;;;5.85;2.70;;;;;;;;;;5032472;28;20030;-72
2024/03/31 11:58:35;;;;;;;7.88;2.13;;;;;;;;;;5031714;28;20037;-73
2024/03/31 12:01:00;;;;;;;6.60;2.40;;;;;;;;;;5031634;28;20084;-66
2024/03/31 12:03:26;;;;;;;5.68;2.10;;;;;;;;;;5032350;28;20444;-71
2024/03/31 12:05:51;;;;;;;5.07;2.25;;;;;;;;;;5032080;28;20017;-71
2024/03/31 12:08:18;;;;;;;9.32;2.17;;;;;;;;;;5032031;28;20028;-72
2024/03/31 12:10:46;;;;;;;7.90;2.17;;;;;;;;;;5032230;28;20079;-72
2024/03/31 12:13:12;;;;;;;4.80;2.08;;;;;;;;;;5031222;28;20028;-72
2024/03/31 12:15:38;;;;;;;5.72;2.55;;;;;;;;;;5030798;28;20022;-73
2024/03/31 12:18:04;;;;;;;5.13;2.58;;;;;;;;;;5031258;28;20164;-72
2024/03/31 12:20:29;;;;;;;7.30;2.22;;;;;;;;;;5035730;28;20408;-71
2024/03/31 12:22:55;;;;;;;5.30;2.50;;;;;;;;;;5035824;28;20360;-70
2024/03/31 12:25:20;;;;;;;6.53;2.90;;;;;;;;;;5035010;28;20021;-64
2024/03/31 12:27:46;;;;;;;4.93;2.67;;;;;;;;;;5035495;28;20030;-73
2024/03/31 12:30:12;;;;;;;6.32;2.70;;;;;;;;;;5034496;28;20029;-72
2024/03/31 12:32:37;;;;;;;9.20;3.00;;;;;;;;;;5035332;28;20112;-71
2024/03/31 12:35:04;;;;;;;7.53;2.38;;;;;;;;;;5034913;28;20030;-72
2024/03/31 12:37:30;;;;;;;5.53;2.40;;;;;;;;;;5035373;28;20126;-73
2024/03/31 12:39:56;;;;;;;6.57;2.28;;;;;;;;;;5035584;28;20437;-72
2024/03/31 12:42:30;;;;;;;11.40;2.50;;;;;;;;;;5035500;28;20026;-67
2024/03/31 12:44:56;;;;;;;3.03;2.10;;;;;;;;;;5034945;28;20099;-73
2024/03/31 12:47:21;;;;;;;4.35;2.25;;;;;;;;;;5035507;28;20060;-74
2024/03/31 12:49:47;;;;;;;7.47;2.65;;;;;;;;;;5035494;28;20053;-75
2024/03/31 12:52:12;;;;;;;4.65;2.65;;;;;;;;;;5035123;28;20051;-73
2024/03/31 12:54:37;;;;;;;5.63;2.53;;;;;;;;;;5034438;28;20049;-71
2024/03/31 12:57:03;;;;;;;6.35;2.25;;;;;;;;;;5034748;28;20095;-72
2024/03/31 12:59:29;;;;;;;8.52;2.88;;;;;;;;;;5035195;28;20029;-73
2024/03/31 13:02:00;;;;;;;7.70;2.60;;;;;;;;;;5033848;28;20436;-72
2024/03/31 13:04:26;;;;;;;7.10;2.63;;;;;;;;;;5034706;28;20026;-73
2024/03/31 13:06:52;;;;;;;7.18;2.50;;;;;;;;;;5034723;28;20029;-73
2024/03/31 13:09:21;;;;;;;5.70;2.42;;;;;;;;;;5034809;28;20017;-73
2024/03/31 13:11:47;;;;;;;6.20;2.80;;;;;;;;;;5034709;28;20456;-72
2024/03/31 13:14:12;;;;;;;6.47;2.50;;;;;;;;;;5034502;28;20064;-72
2024/03/31 13:16:38;;;;;;;5.80;2.90;;;;;;;;;;5034679;28;20061;-70
2024/03/31 13:19:03;;;;;;;6.15;2.08;;;;;;;;;;5034337;28;20037;-72
2024/03/31 13:21:29;;;;;;;6.53;2.50;;;;;;;;;;5034343;28;20129;-72
2024/03/31 13:23:54;;;;;;;7.43;2.72;;;;;;;;;;5034267;28;20067;-64
2024/03/31 13:26:19;;;;;;;6.55;2.40;;;;;;;;;;5034449;28;20428;-73
2024/03/31 13:28:45;;;;;;;10.15;2.60;;;;;;;;;;5033777;28;20032;-74
2024/03/31 13:31:11;;;;;;;8.10;2.13;;;;;;;;;;5032979;28;20419;-72
2024/03/31 13:33:36;;;;;;;5.10;2.05;;;;;;;;;;5033950;28;20035;-73
2024/03/31 13:36:02;;;;;;;7.40;2.47;;;;;;;;;;5033913;28;20053;-73
2024/03/31 13:38:29;;;;;;;6.03;2.47;;;;;;;;;;5034162;28;20033;-72
2024/03/31 13:40:55;;;;;;;7.50;2.40;;;;;;;;;;5034073;28;20092;-73
2024/03/31 13:43:20;;;;;;;5.43;1.85;;;;;;;;;;5034521;28;20494;-70
2024/03/31 13:45:45;;;;;;;6.95;2.63;;;;;;;;;;5035079;28;20480;-73
2024/03/31 13:48:11;;;;;;;9.52;2.53;;;;;;;;;;5034417;28;20059;-73
2024/03/31 13:50:36;;;;;;;9.15;2.10;;;;;;;;;;5033974;28;20021;-72
2024/03/31 13:53:02;;;;;;;6.80;2.10;;;;;;;;;;5034008;28;20370;-72
2024/03/31 13:55:27;;;;;;;3.13;1.75;;;;;;;;;;5033353;28;20145;-73
2024/03/31 13:57:53;;;;;;;4.72;2.03;;;;;;;;;;5033810;28;20052;-73
2024/03/31 14:00:18;;;;;;;4.93;1.60;;;;;;;;;;5032874;28;20029;-72
2024/03/31 14:02:44;;;;;;;4.22;1.88;;;;;;;;;;5033516;28;20072;-73
2024/03/31 14:05:09;;;;;;;6.20;1.63;;;;;;;;;;5033333;28;20128;-71
2024/03/31 14:07:36;;;;;;;6.03;2.17;;;;;;;;;;5033648;28;20091;-72
2024/03/31 14:10:03;;;;;;;6.35;1.88;;;;;;;;;;5033612;28;20498;-73
2024/03/31 14:12:29;;;;;;;3.47;1.80;;;;;;;;;;5033355;28;20053;-72
2024/03/31 14:14:54;;;;;;;4.60;1.77;;;;;;;;;;5032775;28;20067;-73
2024/03/31 14:17:20;;;;;;;6.97;2.20;;;;;;;;;;5033821;28;20029;-74
2024/03/31 14:19:46;;;;;;;5.43;2.03;;;;;;;;;;5032213;28;20022;-75
2024/03/31 14:22:12;;;;;;;5.35;1.70;;;;;;;;;;5033126;28;20049;-73
2024/03/31 14:24:38;;;;;;;9.43;1.92;;;;;;;;;;5034079;28;20099;-73
2024/03/31 14:27:03;;;;;;;8.38;1.92;;;;;;;;;;5045860;28;20029;-74
2024/03/31 14:29:28;;;;;;;7.78;2.30;;;;;;;;;;5034828;28;20029;-71